sensor_id;sensor_type;location;lat;lon;timestamp;P1;durP1;ratioP1;P2;durP2;ratioP2
2564;SDS011;1292;48.020;7.822;2023-06-05T05:46:10;3.77;;;3.13;;
2564;SDS011;1292;48.020;7.822;2023-06-05T05:48:36;5.00;;;4.10;;
2564;SDS011;1292;48.020;7.822;2023-06-05T05:51:04;3.30;;;3.00;;
2564;SDS011;1292;48.020;7.822;2023-06-05T05:53:32;6.63;;;4.33;;
2564;SDS011;1292;48.020;7.822;2023-06-05T05:56:00;4.33;;;3.70;;
2564;SDS011;1292;48.020;7.822;2023-06-05T05:58:28;4.30;;;3.80;;
2564;SDS011;1292;48.020;7.822;2023-06-05T06:00:55;4.17;;;3.50;;
2564;SDS011;1292;48.020;7.822;2023-06-05T06:03:23;5.33;;;4.57;;
2564;SDS011;1292;48.020;7.822;2023-06-05T06:05:51;5.23;;;3.73;;
2564;SDS011;1292;48.020;7.822;2023-06-05T06:08:19;4.83;;;4.13;;
2564;SDS011;1292;48.020;7.822;2023-06-05T06:10:46;4.20;;;3.80;;
2564;SDS011;1292;48.020;7.822;2023-06-05T06:13:13;5.43;;;3.77;;
2564;SDS011;1292;48.020;7.822;2023-06-05T06:15:40;4.20;;;3.80;;
2564;SDS011;1292;48.020;7.822;2023-06-05T06:18:06;4.53;;;3.10;;
2564;SDS011;1292;48.020;7.822;2023-06-05T06:20:35;3.97;;;3.67;;
2564;SDS011;1292;48.020;7.822;2023-06-05T06:23:01;5.23;;;4.40;;
2564;SDS011;1292;48.020;7.822;2023-06-05T06:25:28;7.23;;;4.10;;
2564;SDS011;1292;48.020;7.822;2023-06-05T06:27:57;5.80;;;4.43;;
2564;SDS011;1292;48.020;7.822;2023-06-05T06:30:24;6.27;;;4.07;;
2564;SDS011;1292;48.020;7.822;2023-06-05T06:32:52;6.10;;;4.30;;
2564;SDS011;1292;48.020;7.822;2023-06-05T06:35:22;4.47;;;3.50;;
2564;SDS011;1292;48.020;7.822;2023-06-05T06:37:52;4.30;;;3.63;;
2564;SDS011;1292;48.020;7.822;2023-06-05T06:40:19;6.07;;;3.60;;
2564;SDS011;1292;48.020;7.822;2023-06-05T06:42:46;5.30;;;3.77;;
2564;SDS011;1292;48.020;7.822;2023-06-05T06:45:14;9.27;;;3.83;;
2564;SDS011;1292;48.020;7.822;2023-06-05T06:47:41;7.43;;;4.00;;
2564;SDS011;1292;48.020;7.822;2023-06-05T06:50:08;4.50;;;3.77;;
2564;SDS011;1292;48.020;7.822;2023-06-05T06:52:35;4.30;;;3.90;;
2564;SDS011;1292;48.020;7.822;2023-06-05T06:55:03;6.90;;;3.80;;
2564;SDS011;1292;48.020;7.822;2023-06-05T06:57:31;6.60;;;4.00;;
2564;SDS011;1292;48.020;7.822;2023-06-05T06:59:58;4.40;;;3.23;;
2564;SDS011;1292;48.020;7.822;2023-06-05T07:02:25;4.10;;;3.67;;
2564;SDS011;1292;48.020;7.822;2023-06-05T07:04:52;4.93;;;4.03;;
2564;SDS011;1292;48.020;7.822;2023-06-05T07:07:20;6.33;;;3.43;;
2564;SDS011;1292;48.020;7.822;2023-06-05T07:09:48;4.10;;;3.70;;
2564;SDS011;1292;48.020;7.822;2023-06-05T07:12:18;4.53;;;4.03;;
2564;SDS011;1292;48.020;7.822;2023-06-05T07:14:47;6.70;;;4.80;;
2564;SDS011;1292;48.020;7.822;2023-06-05T07:17:14;5.20;;;3.60;;
2564;SDS011;1292;48.020;7.822;2023-06-05T07:19:41;4.30;;;3.90;;
2564;SDS011;1292;48.020;7.822;2023-06-05T07:22:08;3.93;;;3.53;;
2564;SDS011;1292;48.020;7.822;2023-06-05T07:24:35;3.43;;;3.13;;
2564;SDS011;1292;48.020;7.822;2023-06-05T07:27:03;8.27;;;4.73;;
2564;SDS011;1292;48.020;7.822;2023-06-05T07:29:32;6.07;;;3.60;;
2564;SDS011;1292;48.020;7.822;2023-06-05T07:31:59;6.53;;;4.77;;
2564;SDS011;1292;48.020;7.822;2023-06-05T07:34:28;4.77;;;4.27;;
2564;SDS011;1292;48.020;7.822;2023-06-05T07:36:54;7.53;;;4.53;;
2564;SDS011;1292;48.020;7.822;2023-06-05T07:39:22;7.00;;;4.10;;
2564;SDS011;1292;48.020;7.822;2023-06-05T07:41:49;7.17;;;4.00;;
2564;SDS011;1292;48.020;7.822;2023-06-05T07:44:17;4.00;;;3.60;;
2564;SDS011;1292;48.020;7.822;2023-06-05T07:46:48;4.23;;;3.83;;
2564;SDS011;1292;48.020;7.822;2023-06-05T07:49:15;5.33;;;4.20;;
2564;SDS011;1292;48.020;7.822;2023-06-05T07:51:42;8.40;;;4.60;;
2564;SDS011;1292;48.020;7.822;2023-06-05T07:54:12;4.73;;;3.63;;
2564;SDS011;1292;48.020;7.822;2023-06-05T07:56:40;5.10;;;3.87;;
2564;SDS011;1292;48.020;7.822;2023-06-05T07:59:08;4.87;;;3.60;;
2564;SDS011;1292;48.020;7.822;2023-06-05T08:01:35;6.90;;;3.87;;
2564;SDS011;1292;48.020;7.822;2023-06-05T08:04:04;4.20;;;3.27;;
2564;SDS011;1292;48.020;7.822;2023-06-05T08:06:32;3.77;;;3.47;;
2564;SDS011;1292;48.020;7.822;2023-06-05T08:09:03;8.83;;;3.93;;
2564;SDS011;1292;48.020;7.822;2023-06-05T08:11:29;8.33;;;4.87;;
2564;SDS011;1292;48.020;7.822;2023-06-05T08:13:56;7.27;;;4.20;;
2564;SDS011;1292;48.020;7.822;2023-06-05T08:16:23;4.70;;;3.93;;
2564;SDS011;1292;48.020;7.822;2023-06-05T08:18:50;5.03;;;3.97;;
2564;SDS011;1292;48.020;7.822;2023-06-05T08:21:18;6.13;;;4.00;;
2564;SDS011;1292;48.020;7.822;2023-06-05T08:23:45;4.63;;;3.90;;
2564;SDS011;1292;48.020;7.822;2023-06-05T08:26:12;4.70;;;3.73;;
2564;SDS011;1292;48.020;7.822;2023-06-05T08:28:39;6.40;;;3.60;;
2564;SDS011;1292;48.020;7.822;2023-06-05T08:31:06;3.33;;;2.90;;
2564;SDS011;1292;48.020;7.822;2023-06-05T08:33:34;4.57;;;3.80;;
2564;SDS011;1292;48.020;7.822;2023-06-05T08:36:01;4.77;;;3.50;;
2564;SDS011;1292;48.020;7.822;2023-06-05T08:38:30;5.53;;;2.93;;
2564;SDS011;1292;48.020;7.822;2023-06-05T08:41:00;4.87;;;3.90;;
2564;SDS011;1292;48.020;7.822;2023-06-05T08:43:27;4.23;;;3.80;;
2564;SDS011;1292;48.020;7.822;2023-06-05T08:45:55;9.97;;;3.03;;
2564;SDS011;1292;48.020;7.822;2023-06-05T08:48:23;5.60;;;3.50;;
2564;SDS011;1292;48.020;7.822;2023-06-05T08:50:51;5.03;;;3.30;;
2564;SDS011;1292;48.020;7.822;2023-06-05T08:53:19;4.13;;;3.40;;
2564;SDS011;1292;48.020;7.822;2023-06-05T08:55:53;3.53;;;3.23;;
2564;SDS011;1292;48.020;7.822;2023-06-05T08:58:20;6.40;;;3.90;;
2564;SDS011;1292;48.020;7.822;2023-06-05T09:00:48;3.20;;;2.73;;
2564;SDS011;1292;48.020;7.822;2023-06-05T09:03:16;5.20;;;2.83;;
2564;SDS011;1292;48.020;7.822;2023-06-05T09:05:45;5.53;;;3.17;;
2564;SDS011;1292;48.020;7.822;2023-06-05T09:08:12;4.10;;;2.70;;
2564;SDS011;1292;48.020;7.822;2023-06-05T09:10:39;5.10;;;3.60;;
2564;SDS011;1292;48.020;7.822;2023-06-05T09:13:07;3.93;;;3.60;;
2564;SDS011;1292;48.020;7.822;2023-06-05T09:15:35;3.60;;;3.30;;
2564;SDS011;1292;48.020;7.822;2023-06-05T09:18:05;3.50;;;2.93;;
2564;SDS011;1292;48.020;7.822;2023-06-05T09:20:34;3.20;;;3.00;;
2564;SDS011;1292;48.020;7.822;2023-06-05T09:23:02;4.80;;;2.90;;
2564;SDS011;1292;48.020;7.822;2023-06-05T09:28:18;7.30;;;3.20;;
2564;SDS011;1292;48.020;7.822;2023-06-05T09:30:54;3.47;;;3.17;;
2564;SDS011;1292;48.020;7.822;2023-06-05T09:33:23;3.40;;;3.10;;
2564;SDS011;1292;48.020;7.822;2023-06-05T09:38:34;8.20;;;3.37;;
2564;SDS011;1292;48.020;7.822;2023-06-05T09:41:02;2.90;;;2.60;;
2564;SDS011;1292;48.020;7.822;2023-06-05T09:43:31;3.83;;;2.80;;
2564;SDS011;1292;48.020;7.822;2023-06-05T09:45:58;5.90;;;3.30;;
2564;SDS011;1292;48.020;7.822;2023-06-05T09:48:31;4.60;;;3.10;;
2564;SDS011;1292;48.020;7.822;2023-06-05T09:51:04;3.13;;;2.83;;
2564;SDS011;1292;48.020;7.822;2023-06-05T09:53:34;8.50;;;3.60;;
2564;SDS011;1292;48.020;7.822;2023-06-05T09:56:05;3.03;;;2.80;;
2564;SDS011;1292;48.020;7.822;2023-06-05T09:58:33;3.67;;;3.17;;
2564;SDS011;1292;48.020;7.822;2023-06-05T10:01:03;3.90;;;3.50;;
2564;SDS011;1292;48.020;7.822;2023-06-05T10:03:34;5.73;;;3.20;;
2564;SDS011;1292;48.020;7.822;2023-06-05T10:06:06;3.30;;;3.07;;
2564;SDS011;1292;48.020;7.822;2023-06-05T10:08:33;3.97;;;2.80;;
2564;SDS011;1292;48.020;7.822;2023-06-05T10:11:01;4.23;;;2.90;;
2564;SDS011;1292;48.020;7.822;2023-06-05T10:13:28;4.20;;;3.20;;
2564;SDS011;1292;48.020;7.822;2023-06-05T10:15:56;4.73;;;2.83;;
2564;SDS011;1292;48.020;7.822;2023-06-05T10:18:23;3.27;;;2.97;;
2564;SDS011;1292;48.020;7.822;2023-06-05T10:20:50;3.27;;;2.67;;
2564;SDS011;1292;48.020;7.822;2023-06-05T10:23:19;4.80;;;2.97;;
2564;SDS011;1292;48.020;7.822;2023-06-05T10:25:48;7.37;;;2.73;;
2564;SDS011;1292;48.020;7.822;2023-06-05T10:28:22;3.83;;;3.43;;
2564;SDS011;1292;48.020;7.822;2023-06-05T10:31:13;6.93;;;3.23;;
2564;SDS011;1292;48.020;7.822;2023-06-05T10:39:48;3.13;;;2.80;;
2564;SDS011;1292;48.020;7.822;2023-06-05T10:42:22;4.57;;;2.97;;
2564;SDS011;1292;48.020;7.822;2023-06-05T10:44:49;4.73;;;3.90;;
2564;SDS011;1292;48.020;7.822;2023-06-05T10:50:21;3.37;;;3.07;;
2564;SDS011;1292;48.020;7.822;2023-06-05T10:52:52;4.88;;;3.28;;
2564;SDS011;1292;48.020;7.822;2023-06-05T10:55:19;6.53;;;3.17;;
2564;SDS011;1292;48.020;7.822;2023-06-05T10:58:02;7.90;;;3.20;;
2564;SDS011;1292;48.020;7.822;2023-06-05T11:00:36;3.97;;;3.50;;
2564;SDS011;1292;48.020;7.822;2023-06-05T11:03:05;3.67;;;3.37;;
2564;SDS011;1292;48.020;7.822;2023-06-05T11:05:32;3.00;;;2.73;;
2564;SDS011;1292;48.020;7.822;2023-06-05T11:08:09;4.00;;;2.70;;
2564;SDS011;1292;48.020;7.822;2023-06-05T11:10:38;4.80;;;3.10;;
2564;SDS011;1292;48.020;7.822;2023-06-05T11:16:26;3.77;;;3.30;;
2564;SDS011;1292;48.020;7.822;2023-06-05T11:18:55;5.00;;;3.43;;
2564;SDS011;1292;48.020;7.822;2023-06-05T11:22:01;7.47;;;3.60;;
2564;SDS011;1292;48.020;7.822;2023-06-05T11:24:32;12.97;;;3.40;;
2564;SDS011;1292;48.020;7.822;2023-06-05T11:27:00;10.50;;;3.10;;
2564;SDS011;1292;48.020;7.822;2023-06-05T11:29:28;4.67;;;3.47;;
2564;SDS011;1292;48.020;7.822;2023-06-05T11:31:55;4.67;;;3.50;;
2564;SDS011;1292;48.020;7.822;2023-06-05T11:34:24;4.33;;;3.30;;
2564;SDS011;1292;48.020;7.822;2023-06-05T11:36:52;10.80;;;3.27;;
2564;SDS011;1292;48.020;7.822;2023-06-05T11:39:19;4.93;;;3.57;;
2564;SDS011;1292;48.020;7.822;2023-06-05T11:41:49;4.37;;;3.40;;
2564;SDS011;1292;48.020;7.822;2023-06-05T11:44:29;4.00;;;3.30;;
2564;SDS011;1292;48.020;7.822;2023-06-05T11:46:57;5.37;;;4.20;;
2564;SDS011;1292;48.020;7.822;2023-06-05T11:49:26;4.63;;;3.50;;
2564;SDS011;1292;48.020;7.822;2023-06-05T11:51:53;3.60;;;3.30;;
2564;SDS011;1292;48.020;7.822;2023-06-05T11:54:25;4.80;;;3.57;;
2564;SDS011;1292;48.020;7.822;2023-06-05T11:56:56;6.47;;;2.80;;
2564;SDS011;1292;48.020;7.822;2023-06-05T11:59:23;3.03;;;2.73;;
2564;SDS011;1292;48.020;7.822;2023-06-05T12:01:50;3.83;;;2.80;;
2564;SDS011;1292;48.020;7.822;2023-06-05T12:04:19;4.03;;;2.70;;
2564;SDS011;1292;48.020;7.822;2023-06-05T12:06:48;5.03;;;3.37;;
2564;SDS011;1292;48.020;7.822;2023-06-05T12:09:16;4.70;;;3.33;;
2564;SDS011;1292;48.020;7.822;2023-06-05T12:11:44;3.10;;;2.80;;
2564;SDS011;1292;48.020;7.822;2023-06-05T12:14:12;2.90;;;2.60;;
2564;SDS011;1292;48.020;7.822;2023-06-05T12:16:40;3.30;;;2.90;;
2564;SDS011;1292;48.020;7.822;2023-06-05T12:19:12;4.17;;;3.23;;
2564;SDS011;1292;48.020;7.822;2023-06-05T12:21:40;6.30;;;2.87;;
2564;SDS011;1292;48.020;7.822;2023-06-05T12:24:08;5.03;;;3.30;;
2564;SDS011;1292;48.020;7.822;2023-06-05T12:26:48;3.53;;;3.23;;
2564;SDS011;1292;48.020;7.822;2023-06-05T12:29:18;6.70;;;3.23;;
2564;SDS011;1292;48.020;7.822;2023-06-05T12:31:46;3.97;;;3.27;;
2564;SDS011;1292;48.020;7.822;2023-06-05T12:34:13;3.50;;;3.20;;
2564;SDS011;1292;48.020;7.822;2023-06-05T12:36:41;3.00;;;2.80;;
2564;SDS011;1292;48.020;7.822;2023-06-05T12:39:10;11.07;;;3.47;;
2564;SDS011;1292;48.020;7.822;2023-06-05T12:41:38;3.43;;;3.10;;
2564;SDS011;1292;48.020;7.822;2023-06-05T12:44:05;3.80;;;2.80;;
2564;SDS011;1292;48.020;7.822;2023-06-05T12:46:34;4.43;;;3.27;;
2564;SDS011;1292;48.020;7.822;2023-06-05T12:49:02;3.03;;;2.60;;
2564;SDS011;1292;48.020;7.822;2023-06-05T12:51:30;7.83;;;3.67;;
2564;SDS011;1292;48.020;7.822;2023-06-05T12:53:57;4.60;;;3.73;;
2564;SDS011;1292;48.020;7.822;2023-06-05T12:56:25;7.27;;;3.03;;
2564;SDS011;1292;48.020;7.822;2023-06-05T12:58:54;4.10;;;3.50;;
2564;SDS011;1292;48.020;7.822;2023-06-05T13:01:22;3.27;;;3.00;;
2564;SDS011;1292;48.020;7.822;2023-06-05T13:03:50;8.80;;;2.70;;
2564;SDS011;1292;48.020;7.822;2023-06-05T13:06:17;3.80;;;3.50;;
2564;SDS011;1292;48.020;7.822;2023-06-05T13:08:45;4.07;;;3.30;;
2564;SDS011;1292;48.020;7.822;2023-06-05T13:11:12;4.90;;;3.47;;
2564;SDS011;1292;48.020;7.822;2023-06-05T13:13:41;4.30;;;3.13;;
2564;SDS011;1292;48.020;7.822;2023-06-05T13:16:09;4.63;;;3.37;;
2564;SDS011;1292;48.020;7.822;2023-06-05T13:18:36;3.63;;;3.30;;
2564;SDS011;1292;48.020;7.822;2023-06-05T13:21:03;5.90;;;3.10;;
2564;SDS011;1292;48.020;7.822;2023-06-05T13:23:30;3.60;;;3.10;;
2564;SDS011;1292;48.020;7.822;2023-06-05T13:25:57;3.60;;;3.00;;
2564;SDS011;1292;48.020;7.822;2023-06-05T13:28:24;4.70;;;3.73;;
2564;SDS011;1292;48.020;7.822;2023-06-05T13:30:52;2.73;;;2.50;;
2564;SDS011;1292;48.020;7.822;2023-06-05T13:33:21;3.10;;;2.90;;
2564;SDS011;1292;48.020;7.822;2023-06-05T13:35:49;3.73;;;3.13;;
2564;SDS011;1292;48.020;7.822;2023-06-05T13:38:17;7.37;;;3.00;;
2564;SDS011;1292;48.020;7.822;2023-06-05T13:40:44;3.60;;;3.30;;
2564;SDS011;1292;48.020;7.822;2023-06-05T13:43:14;3.90;;;3.50;;
2564;SDS011;1292;48.020;7.822;2023-06-05T13:45:41;7.63;;;3.23;;
2564;SDS011;1292;48.020;7.822;2023-06-05T13:48:09;3.90;;;3.40;;
2564;SDS011;1292;48.020;7.822;2023-06-05T13:50:36;4.03;;;3.57;;
2564;SDS011;1292;48.020;7.822;2023-06-05T13:53:03;4.93;;;3.60;;
2564;SDS011;1292;48.020;7.822;2023-06-05T13:55:29;5.13;;;3.30;;
2564;SDS011;1292;48.020;7.822;2023-06-05T13:57:56;6.33;;;3.33;;
2564;SDS011;1292;48.020;7.822;2023-06-05T14:00:26;4.00;;;3.07;;
2564;SDS011;1292;48.020;7.822;2023-06-05T14:02:53;4.70;;;3.67;;
2564;SDS011;1292;48.020;7.822;2023-06-05T14:05:21;4.30;;;3.90;;
2564;SDS011;1292;48.020;7.822;2023-06-05T14:07:49;3.50;;;3.20;;
2564;SDS011;1292;48.020;7.822;2023-06-05T14:10:16;5.73;;;3.60;;
2564;SDS011;1292;48.020;7.822;2023-06-05T14:12:44;10.00;;;3.87;;
2564;SDS011;1292;48.020;7.822;2023-06-05T14:15:11;4.43;;;3.27;;
2564;SDS011;1292;48.020;7.822;2023-06-05T14:17:37;5.83;;;3.30;;
2564;SDS011;1292;48.020;7.822;2023-06-05T14:20:05;5.13;;;3.20;;
2564;SDS011;1292;48.020;7.822;2023-06-05T14:22:34;7.40;;;4.10;;
2564;SDS011;1292;48.020;7.822;2023-06-05T14:25:01;4.07;;;3.70;;
2564;SDS011;1292;48.020;7.822;2023-06-05T14:27:28;3.30;;;3.00;;
2564;SDS011;1292;48.020;7.822;2023-06-05T14:29:55;5.20;;;3.47;;
2564;SDS011;1292;48.020;7.822;2023-06-05T14:32:21;4.47;;;3.70;;
2564;SDS011;1292;48.020;7.822;2023-06-05T14:34:48;4.63;;;2.97;;
2564;SDS011;1292;48.020;7.822;2023-06-05T14:37:15;13.90;;;3.93;;
2564;SDS011;1292;48.020;7.822;2023-06-05T14:39:43;6.27;;;3.47;;
2564;SDS011;1292;48.020;7.822;2023-06-05T14:42:10;3.40;;;3.10;;
2564;SDS011;1292;48.020;7.822;2023-06-05T14:44:37;3.87;;;3.17;;
2564;SDS011;1292;48.020;7.822;2023-06-05T14:47:04;4.13;;;3.73;;
2564;SDS011;1292;48.020;7.822;2023-06-05T14:49:31;7.23;;;3.70;;
2564;SDS011;1292;48.020;7.822;2023-06-05T14:51:58;4.07;;;3.57;;
2564;SDS011;1292;48.020;7.822;2023-06-05T14:54:25;3.77;;;3.47;;
2564;SDS011;1292;48.020;7.822;2023-06-05T14:56:53;3.93;;;3.53;;
2564;SDS011;1292;48.020;7.822;2023-06-05T14:59:20;3.83;;;3.33;;
2564;SDS011;1292;48.020;7.822;2023-06-05T15:01:47;3.80;;;3.50;;
2564;SDS011;1292;48.020;7.822;2023-06-05T15:04:14;4.40;;;3.67;;
2564;SDS011;1292;48.020;7.822;2023-06-05T15:06:40;4.10;;;3.80;;
2564;SDS011;1292;48.020;7.822;2023-06-05T15:09:07;4.67;;;3.80;;
2564;SDS011;1292;48.020;7.822;2023-06-05T15:11:35;3.93;;;3.63;;
2564;SDS011;1292;48.020;7.822;2023-06-05T15:14:03;4.40;;;4.00;;
2564;SDS011;1292;48.020;7.822;2023-06-05T15:16:30;4.20;;;3.90;;
2564;SDS011;1292;48.020;7.822;2023-06-05T15:18:57;4.60;;;4.20;;
2564;SDS011;1292;48.020;7.822;2023-06-05T15:21:23;3.90;;;3.60;;
2564;SDS011;1292;48.020;7.822;2023-06-05T15:23:50;4.13;;;3.73;;
2564;SDS011;1292;48.020;7.822;2023-06-05T15:26:17;4.40;;;4.10;;
2564;SDS011;1292;48.020;7.822;2023-06-05T15:28:44;10.23;;;4.10;;
2564;SDS011;1292;48.020;7.822;2023-06-05T15:31:12;6.80;;;4.60;;
2564;SDS011;1292;48.020;7.822;2023-06-05T15:33:39;9.50;;;4.50;;
2564;SDS011;1292;48.020;7.822;2023-06-05T15:36:06;7.63;;;4.80;;
2564;SDS011;1292;48.020;7.822;2023-06-05T15:38:33;9.20;;;4.10;;
2564;SDS011;1292;48.020;7.822;2023-06-05T15:41:00;5.40;;;4.73;;
2564;SDS011;1292;48.020;7.822;2023-06-05T15:43:27;5.00;;;4.50;;
2564;SDS011;1292;48.020;7.822;2023-06-05T15:45:54;5.77;;;4.30;;
2564;SDS011;1292;48.020;7.822;2023-06-05T15:48:22;6.37;;;4.77;;
2564;SDS011;1292;48.020;7.822;2023-06-05T15:50:50;5.10;;;4.70;;
2564;SDS011;1292;48.020;7.822;2023-06-05T15:53:17;6.77;;;4.77;;
2564;SDS011;1292;48.020;7.822;2023-06-05T15:55:44;5.93;;;4.47;;
2564;SDS011;1292;48.020;7.822;2023-06-05T15:58:11;4.63;;;4.23;;
2564;SDS011;1292;48.020;7.822;2023-06-05T16:00:38;7.90;;;4.27;;
2564;SDS011;1292;48.020;7.822;2023-06-05T16:03:04;5.93;;;4.60;;
2564;SDS011;1292;48.020;7.822;2023-06-05T16:05:33;4.93;;;4.40;;
2564;SDS011;1292;48.020;7.822;2023-06-05T16:08:00;5.10;;;4.60;;
2564;SDS011;1292;48.020;7.822;2023-06-05T16:10:27;8.33;;;4.67;;
2564;SDS011;1292;48.020;7.822;2023-06-05T16:12:53;5.57;;;3.97;;
2564;SDS011;1292;48.020;7.822;2023-06-05T16:15:20;7.40;;;4.53;;
2564;SDS011;1292;48.020;7.822;2023-06-05T16:17:47;6.70;;;4.80;;
2564;SDS011;1292;48.020;7.822;2023-06-05T16:20:16;5.93;;;4.17;;
2564;SDS011;1292;48.020;7.822;2023-06-05T16:22:44;4.90;;;3.93;;
2564;SDS011;1292;48.020;7.822;2023-06-05T16:25:11;4.57;;;4.27;;
2564;SDS011;1292;48.020;7.822;2023-06-05T16:27:38;7.93;;;4.30;;
2564;SDS011;1292;48.020;7.822;2023-06-05T16:30:05;6.17;;;4.60;;
2564;SDS011;1292;48.020;7.822;2023-06-05T16:32:33;10.50;;;4.80;;
2564;SDS011;1292;48.020;7.822;2023-06-05T16:35:01;4.53;;;4.13;;
2564;SDS011;1292;48.020;7.822;2023-06-05T16:37:28;5.57;;;4.57;;
2564;SDS011;1292;48.020;7.822;2023-06-05T16:39:56;6.57;;;3.67;;
2564;SDS011;1292;48.020;7.822;2023-06-05T16:42:24;7.33;;;4.07;;
2564;SDS011;1292;48.020;7.822;2023-06-05T16:44:51;4.10;;;3.63;;
2564;SDS011;1292;48.020;7.822;2023-06-05T16:47:18;5.00;;;4.50;;
2564;SDS011;1292;48.020;7.822;2023-06-05T16:49:45;4.50;;;4.10;;
2564;SDS011;1292;48.020;7.822;2023-06-05T16:52:12;4.13;;;3.73;;
2564;SDS011;1292;48.020;7.822;2023-06-05T16:54:39;4.80;;;4.37;;
2564;SDS011;1292;48.020;7.822;2023-06-05T16:57:07;4.50;;;3.80;;
2564;SDS011;1292;48.020;7.822;2023-06-05T16:59:34;5.63;;;3.90;;
2564;SDS011;1292;48.020;7.822;2023-06-05T17:02:01;4.00;;;3.70;;
2564;SDS011;1292;48.020;7.822;2023-06-05T17:04:28;4.93;;;4.27;;
2564;SDS011;1292;48.020;7.822;2023-06-05T17:06:55;3.57;;;3.27;;
2564;SDS011;1292;48.020;7.822;2023-06-05T17:09:21;3.97;;;3.60;;
2564;SDS011;1292;48.020;7.822;2023-06-05T17:11:48;5.33;;;3.30;;
2564;SDS011;1292;48.020;7.822;2023-06-05T17:14:16;4.23;;;3.83;;
2564;SDS011;1292;48.020;7.822;2023-06-05T17:16:44;4.07;;;3.67;;
2564;SDS011;1292;48.020;7.822;2023-06-05T17:19:11;4.73;;;3.60;;
2564;SDS011;1292;48.020;7.822;2023-06-05T17:21:38;4.20;;;3.80;;
2564;SDS011;1292;48.020;7.822;2023-06-05T17:24:06;4.33;;;3.73;;
2564;SDS011;1292;48.020;7.822;2023-06-05T17:26:33;5.73;;;3.50;;
2564;SDS011;1292;48.020;7.822;2023-06-05T17:29:00;3.67;;;3.37;;
2564;SDS011;1292;48.020;7.822;2023-06-05T17:31:28;5.93;;;3.73;;
2564;SDS011;1292;48.020;7.822;2023-06-05T17:33:57;6.27;;;3.53;;
2564;SDS011;1292;48.020;7.822;2023-06-05T17:36:24;5.50;;;4.27;;
2564;SDS011;1292;48.020;7.822;2023-06-05T17:38:51;4.00;;;3.70;;
2564;SDS011;1292;48.020;7.822;2023-06-05T17:41:17;3.70;;;3.23;;
2564;SDS011;1292;48.020;7.822;2023-06-05T17:43:48;5.20;;;3.50;;
2564;SDS011;1292;48.020;7.822;2023-06-05T17:46:16;4.27;;;3.83;;
2564;SDS011;1292;48.020;7.822;2023-06-05T17:48:44;5.80;;;3.87;;
2564;SDS011;1292;48.020;7.822;2023-06-05T17:51:10;4.10;;;3.77;;
2564;SDS011;1292;48.020;7.822;2023-06-05T17:53:37;4.53;;;4.10;;
2564;SDS011;1292;48.020;7.822;2023-06-05T17:56:04;6.60;;;3.83;;
2564;SDS011;1292;48.020;7.822;2023-06-05T17:58:31;3.70;;;3.40;;
2564;SDS011;1292;48.020;7.822;2023-06-05T18:00:58;5.27;;;3.40;;
2564;SDS011;1292;48.020;7.822;2023-06-05T18:03:24;4.10;;;3.67;;
2564;SDS011;1292;48.020;7.822;2023-06-05T18:05:53;4.13;;;3.77;;
2564;SDS011;1292;48.020;7.822;2023-06-05T18:08:19;4.53;;;3.80;;
2564;SDS011;1292;48.020;7.822;2023-06-05T18:10:46;4.30;;;3.90;;
2564;SDS011;1292;48.020;7.822;2023-06-05T18:13:13;3.80;;;3.50;;
2564;SDS011;1292;48.020;7.822;2023-06-05T18:15:40;3.90;;;3.50;;
2564;SDS011;1292;48.020;7.822;2023-06-05T18:18:07;3.80;;;3.40;;
2564;SDS011;1292;48.020;7.822;2023-06-05T18:20:35;6.50;;;4.10;;
2564;SDS011;1292;48.020;7.822;2023-06-05T18:23:03;6.50;;;3.77;;
2564;SDS011;1292;48.020;7.822;2023-06-05T18:25:30;5.93;;;3.67;;
2564;SDS011;1292;48.020;7.822;2023-06-05T18:27:57;6.23;;;4.83;;
2564;SDS011;1292;48.020;7.822;2023-06-05T18:30:24;4.73;;;4.33;;
2564;SDS011;1292;48.020;7.822;2023-06-05T18:32:51;5.30;;;4.80;;
2564;SDS011;1292;48.020;7.822;2023-06-05T18:35:18;5.37;;;4.87;;
2564;SDS011;1292;48.020;7.822;2023-06-05T18:37:45;5.70;;;5.20;;
2564;SDS011;1292;48.020;7.822;2023-06-05T18:40:14;4.97;;;4.50;;
2564;SDS011;1292;48.020;7.822;2023-06-05T18:42:41;5.73;;;5.30;;
2564;SDS011;1292;48.020;7.822;2023-06-05T18:45:08;4.93;;;3.97;;
2564;SDS011;1292;48.020;7.822;2023-06-05T18:47:36;5.67;;;4.30;;
2564;SDS011;1292;48.020;7.822;2023-06-05T18:50:03;4.70;;;4.30;;
2564;SDS011;1292;48.020;7.822;2023-06-05T18:52:30;6.60;;;4.30;;
2564;SDS011;1292;48.020;7.822;2023-06-05T18:54:57;5.43;;;4.93;;
2564;SDS011;1292;48.020;7.822;2023-06-05T18:57:26;5.10;;;4.60;;
2564;SDS011;1292;48.020;7.822;2023-06-05T18:59:53;4.93;;;4.50;;
2564;SDS011;1292;48.020;7.822;2023-06-05T19:02:20;7.40;;;4.80;;
2564;SDS011;1292;48.020;7.822;2023-06-05T19:04:46;5.67;;;5.10;;
2564;SDS011;1292;48.020;7.822;2023-06-05T19:07:13;5.37;;;4.87;;
2564;SDS011;1292;48.020;7.822;2023-06-05T19:09:40;5.20;;;4.73;;
2564;SDS011;1292;48.020;7.822;2023-06-05T19:12:07;5.30;;;4.90;;
2564;SDS011;1292;48.020;7.822;2023-06-05T19:14:36;5.60;;;5.03;;
2564;SDS011;1292;48.020;7.822;2023-06-05T19:17:03;8.70;;;5.60;;
2564;SDS011;1292;48.020;7.822;2023-06-05T19:19:31;5.67;;;5.10;;
2564;SDS011;1292;48.020;7.822;2023-06-05T19:21:58;6.47;;;5.77;;
2564;SDS011;1292;48.020;7.822;2023-06-05T19:24:24;8.23;;;5.67;;
2564;SDS011;1292;48.020;7.822;2023-06-05T19:26:51;8.90;;;5.17;;
2564;SDS011;1292;48.020;7.822;2023-06-05T19:29:18;6.00;;;5.50;;
2564;SDS011;1292;48.020;7.822;2023-06-05T19:31:46;5.77;;;5.00;;
2564;SDS011;1292;48.020;7.822;2023-06-05T19:34:13;5.63;;;5.03;;
2564;SDS011;1292;48.020;7.822;2023-06-05T19:36:40;5.23;;;4.73;;
2564;SDS011;1292;48.020;7.822;2023-06-05T19:39:07;5.00;;;4.60;;
2564;SDS011;1292;48.020;7.822;2023-06-05T19:41:33;6.33;;;4.93;;
2564;SDS011;1292;48.020;7.822;2023-06-05T19:44:00;7.43;;;5.27;;
2564;SDS011;1292;48.020;7.822;2023-06-05T19:46:28;5.20;;;4.80;;
2564;SDS011;1292;48.020;7.822;2023-06-05T19:48:56;8.97;;;5.00;;
2564;SDS011;1292;48.020;7.822;2023-06-05T19:51:23;5.43;;;4.93;;
2564;SDS011;1292;48.020;7.822;2023-06-05T19:53:50;5.77;;;5.27;;
2564;SDS011;1292;48.020;7.822;2023-06-05T19:56:17;7.10;;;6.17;;
2564;SDS011;1292;48.020;7.822;2023-06-05T19:58:44;6.70;;;6.10;;
2564;SDS011;1292;48.020;7.822;2023-06-05T20:01:11;6.70;;;5.60;;
2564;SDS011;1292;48.020;7.822;2023-06-05T20:03:38;5.90;;;5.40;;
2564;SDS011;1292;48.020;7.822;2023-06-05T20:06:06;5.83;;;5.33;;
2564;SDS011;1292;48.020;7.822;2023-06-05T20:08:33;4.87;;;4.47;;
2564;SDS011;1292;48.020;7.822;2023-06-05T20:11:00;7.27;;;5.83;;
2564;SDS011;1292;48.020;7.822;2023-06-05T20:13:27;5.77;;;5.23;;
2564;SDS011;1292;48.020;7.822;2023-06-05T20:15:53;5.60;;;5.10;;
2564;SDS011;1292;48.020;7.822;2023-06-05T20:18:21;7.67;;;6.17;;
2564;SDS011;1292;48.020;7.822;2023-06-05T20:20:47;6.17;;;5.53;;
2564;SDS011;1292;48.020;7.822;2023-06-05T20:23:16;7.17;;;5.20;;
2564;SDS011;1292;48.020;7.822;2023-06-05T20:25:42;7.73;;;5.13;;
2564;SDS011;1292;48.020;7.822;2023-06-05T20:28:09;5.70;;;5.20;;
2564;SDS011;1292;48.020;7.822;2023-06-05T20:30:36;5.63;;;5.10;;
2564;SDS011;1292;48.020;7.822;2023-06-05T20:33:03;5.80;;;5.27;;
2564;SDS011;1292;48.020;7.822;2023-06-05T20:35:31;6.03;;;5.37;;
2564;SDS011;1292;48.020;7.822;2023-06-05T20:38:00;4.87;;;4.57;;
2564;SDS011;1292;48.020;7.822;2023-06-05T20:40:33;5.40;;;4.87;;
2564;SDS011;1292;48.020;7.822;2023-06-05T20:43:01;5.33;;;4.83;;
2564;SDS011;1292;48.020;7.822;2023-06-05T20:45:28;5.70;;;5.30;;
2564;SDS011;1292;48.020;7.822;2023-06-05T20:47:58;5.80;;;5.30;;
2564;SDS011;1292;48.020;7.822;2023-06-05T20:50:27;5.97;;;5.47;;
2564;SDS011;1292;48.020;7.822;2023-06-05T20:52:53;7.83;;;6.00;;
2564;SDS011;1292;48.020;7.822;2023-06-05T20:55:20;5.90;;;5.40;;
2564;SDS011;1292;48.020;7.822;2023-06-05T20:57:49;5.30;;;4.90;;
2564;SDS011;1292;48.020;7.822;2023-06-05T21:00:16;7.27;;;5.77;;
2564;SDS011;1292;48.020;7.822;2023-06-05T21:02:43;5.80;;;5.27;;
2564;SDS011;1292;48.020;7.822;2023-06-05T21:05:10;6.23;;;5.63;;
2564;SDS011;1292;48.020;7.822;2023-06-05T21:07:37;7.47;;;6.43;;
2564;SDS011;1292;48.020;7.822;2023-06-05T21:10:04;6.63;;;6.03;;
2564;SDS011;1292;48.020;7.822;2023-06-05T21:12:31;7.73;;;5.83;;
2564;SDS011;1292;48.020;7.822;2023-06-05T21:14:59;7.27;;;6.57;;
2564;SDS011;1292;48.020;7.822;2023-06-05T21:17:26;11.60;;;7.13;;
2564;SDS011;1292;48.020;7.822;2023-06-05T21:19:53;6.80;;;6.10;;
2564;SDS011;1292;48.020;7.822;2023-06-05T21:22:20;11.50;;;7.20;;